Time;durP1;ratioP1;P1;durP2;ratioP2;P2;SDS_P1;SDS_P2;PMS_P1;PMS_P2;Temp;Humidity;BMP_temperature;BMP_pressure;BME280_temperature;BME280_humidity;BME280_pressure;Samples;Min_cycle;Max_cycle;Signal;HPM_P1;HPM_P2
2022/08/21 03:27:08;;;;;;;2.55;1.42;;;;;;;17.91;100.00;99408.28;4316058;26;20054;-82
2022/08/21 03:29:34;;;;;;;1.50;1.40;;;;;;;17.92;100.00;99415.41;5014078;28;20050;-83
2022/08/21 03:31:59;;;;;;;1.48;1.30;;;;;;;17.93;100.00;99416.94;5012587;28;20037;-83
2022/08/21 03:34:25;;;;;;;1.45;1.33;;;;;;;17.91;100.00;99413.91;5013667;28;20042;-82
2022/08/21 03:36:50;;;;;;;1.63;1.38;;;;;;;17.92;100.00;99409.78;5012310;28;20377;-83
2022/08/21 03:39:16;;;;;;;1.45;1.35;;;;;;;17.93;100.00;99416.94;5011582;28;20038;-83
2022/08/21 03:41:42;;;;;;;1.60;1.50;;;;;;;17.91;100.00;99403.44;4994044;28;20049;-83
2022/08/21 03:44:08;;;;;;;1.85;1.60;;;;;;;17.92;100.00;99415.41;5013392;28;20042;-83
2022/08/21 03:46:33;;;;;;;1.83;1.50;;;;;;;17.91;100.00;99416.69;5012464;28;20117;-83
2022/08/21 03:48:59;;;;;;;1.60;1.42;;;;;;;17.94;100.00;99421.31;5012816;28;20491;-83
2022/08/21 03:51:25;;;;;;;3.20;1.73;;;;;;;17.93;100.00;99416.94;5011509;28;20042;-84
2022/08/21 03:53:50;;;;;;;4.45;1.90;;;;;;;17.91;100.00;99414.66;5012856;28;20045;-83
2022/08/21 03:56:16;;;;;;;2.47;1.80;;;;;;;17.90;100.00;99409.53;5012432;28;20096;-84
2022/08/21 03:58:42;;;;;;;2.13;1.80;;;;;;;17.94;100.00;99401.66;5013295;28;20522;-84
2022/08/21 04:01:07;;;;;;;2.15;1.77;;;;;;;17.95;100.00;99397.59;4984152;28;20092;-83
2022/08/21 04:03:35;;;;;;;1.98;1.80;;;;;;;17.94;100.00;99418.50;4979351;28;20077;-84
2022/08/21 04:06:00;;;;;;;3.15;2.00;;;;;;;17.94;100.00;99422.06;4975610;28;20082;-84
2022/08/21 04:08:26;;;;;;;1.90;1.70;;;;;;;17.97;100.00;99417.47;5011905;28;20068;-84
2022/08/21 04:10:54;;;;;;;2.85;1.77;;;;;;;17.93;100.00;99417.72;5011652;28;20038;-84
2022/08/21 04:13:20;;;;;;;2.20;1.88;;;;;;;17.96;100.00;99419.50;4995560;28;20073;-84
2022/08/21 04:15:45;;;;;;;2.50;2.10;;;;;;;17.97;100.00;99425.91;5011830;28;20030;-83
2022/08/21 04:18:11;;;;;;;2.22;2.00;;;;;;;17.93;100.00;99412.09;4978991;28;20038;-83
2022/08/21 04:20:37;;;;;;;2.47;1.90;;;;;;;17.93;100.00;99411.34;5011844;28;20041;-85
2022/08/21 04:23:02;;;;;;;2.42;2.03;;;;;;;17.93;100.00;99416.94;5012470;28;20112;-83
2022/08/21 04:25:28;;;;;;;2.55;2.13;;;;;;;17.92;100.00;99416.19;5012230;28;20041;-83
2022/08/21 04:27:54;;;;;;;3.55;2.10;;;;;;;17.94;100.00;99419.25;4998147;28;20045;-83
2022/08/21 04:30:20;;;;;;;3.35;2.20;;;;;;;17.93;100.00;99428.19;5031242;28;20037;-84
2022/08/21 04:32:47;;;;;;;3.80;2.30;;;;;;;17.93;100.00;99417.72;5031724;28;20049;-83
2022/08/21 04:35:15;;;;;;;3.20;2.15;;;;;;;17.95;100.00;99420.81;5013964;28;20050;-83
2022/08/21 04:37:41;;;;;;;4.00;2.22;;;;;;;17.95;100.00;99428.47;5013196;28;20510;-83
2022/08/21 04:40:09;;;;;;;2.65;2.33;;;;;;;17.97;100.00;99425.91;5031842;28;20046;-83
2022/08/21 04:42:42;;;;;;;2.42;2.10;;;;;;;17.95;100.00;99431.25;5031046;28;20037;-83
2022/08/21 04:45:08;;;;;;;2.63;2.20;;;;;;;17.97;100.00;99431.50;5014300;28;20477;-83
2022/08/21 04:47:33;;;;;;;2.70;2.25;;;;;;;18.00;100.00;99434.06;5030888;28;20061;-83
2022/08/21 04:49:59;;;;;;;2.65;2.28;;;;;;;17.98;100.00;99427.44;5031387;28;20029;-83
2022/08/21 04:52:24;;;;;;;3.08;2.60;;;;;;;18.01;100.00;99432.03;4993606;28;20080;-83
2022/08/21 04:54:51;;;;;;;2.80;2.47;;;;;;;18.07;100.00;99432.84;5010424;28;20049;-83
2022/08/21 04:57:17;;;;;;;2.90;2.50;;;;;;;18.11;100.00;99439.00;5013220;28;20042;-83
2022/08/21 04:59:46;;;;;;;3.22;2.53;;;;;;;18.13;100.00;99437.22;5031304;28;20414;-83
2022/08/21 05:02:13;;;;;;;3.70;2.75;;;;;;;18.16;100.00;99430.59;4996448;28;20037;-83
2022/08/21 05:04:43;;;;;;;3.47;3.05;;;;;;;18.20;100.00;99430.34;5030561;28;20514;-83
2022/08/21 05:07:15;;;;;;;2.95;2.65;;;;;;;18.32;100.00;99437.53;5029698;28;20053;-83
2022/08/21 05:09:41;;;;;;;2.97;2.67;;;;;;;18.36;99.84;99443.69;5013444;28;20391;-83
2022/08/21 05:12:06;;;;;;;3.83;2.80;;;;;;;18.47;99.40;99442.97;5012539;28;20187;-83
2022/08/21 05:14:32;;;;;;;3.65;2.67;;;;;;;18.56;98.99;99439.97;5031166;28;20114;-83
2022/08/21 05:16:58;;;;;;;3.38;2.75;;;;;;;18.67;98.08;99444.84;4996225;28;20176;-83
2022/08/21 05:19:25;;;;;;;3.47;2.72;;;;;;;18.73;96.98;99442.81;5013593;28;20525;-83
2022/08/21 05:21:51;;;;;;;3.78;2.72;;;;;;;18.82;97.18;99445.38;5012263;28;20486;-83
2022/08/21 05:24:17;;;;;;;4.32;2.90;;;;;;;19.01;96.26;99452.06;5029295;28;20466;-82
2022/08/21 05:26:44;;;;;;;2.90;2.60;;;;;;;19.13;95.20;99447.97;5007428;28;20057;-82
2022/08/21 05:29:10;;;;;;;3.22;2.78;;;;;;;19.25;94.18;99448.78;4992404;28;20038;-83
2022/08/21 05:31:36;;;;;;;4.38;3.00;;;;;;;19.37;93.46;99461.56;5008830;28;20039;-83
2022/08/21 05:34:02;;;;;;;2.92;2.55;;;;;;;19.41;93.78;99459.25;5008752;28;20062;-83
2022/08/21 05:36:28;;;;;;;4.45;2.60;;;;;;;19.54;92.38;99471.53;5006843;28;20573;-83
2022/08/21 05:38:53;;;;;;;3.53;2.72;;;;;;;19.48;92.51;99459.53;5010607;28;20418;-83
2022/08/21 05:41:19;;;;;;;3.35;2.83;;;;;;;19.61;91.76;99463.88;5011313;28;20046;-83
2022/08/21 05:43:44;;;;;;;2.97;2.67;;;;;;;19.74;91.77;99472.53;4992427;28;20691;-83
2022/08/21 05:46:12;;;;;;;2.92;2.42;;;;;;;19.82;90.98;99476.38;5010140;28;20053;-83
2022/08/21 05:48:38;;;;;;;4.35;2.40;;;;;;;19.91;90.05;99470.47;5008212;28;20038;-83
2022/08/21 05:51:06;;;;;;;4.80;2.50;;;;;;;20.00;89.74;99475.84;5008217;28;20156;-83
2022/08/21 05:53:31;;;;;;;3.55;2.60;;;;;;;20.08;89.05;99470.44;5008549;28;20034;-83
2022/08/21 05:55:57;;;;;;;4.80;2.60;;;;;;;20.25;88.75;99477.56;5000594;28;20558;-83
2022/08/21 05:58:22;;;;;;;3.63;2.45;;;;;;;20.55;88.10;99471.31;5009080;28;20618;-83
2022/08/21 06:00:50;;;;;;;2.85;2.42;;;;;;;20.67;86.09;99478.41;5001842;28;20129;-83
2022/08/21 06:03:27;;;;;;;2.97;2.47;;;;;;;20.64;85.71;99476.66;5019043;28;20046;-80
2022/08/21 06:05:54;;;;;;;3.10;2.55;;;;;;;20.67;85.94;99478.41;5029546;28;20070;-81
2022/08/21 06:08:21;;;;;;;3.33;2.40;;;;;;;20.62;85.73;99484.88;5013780;28;20079;-83
2022/08/21 06:10:47;;;;;;;4.95;2.33;;;;;;;20.63;86.01;99486.38;5011415;28;20038;-83
2022/08/21 06:13:14;;;;;;;3.25;2.33;;;;;;;20.73;85.44;99487.63;5013552;28;20411;-83
2022/08/21 06:15:40;;;;;;;2.60;2.20;;;;;;;20.77;85.54;99485.31;5011649;28;20068;-83
2022/08/21 06:18:05;;;;;;;3.10;2.30;;;;;;;20.86;86.06;99476.56;5012992;28;20050;-83
2022/08/21 06:20:32;;;;;;;3.28;2.70;;;;;;;20.83;85.77;99477.56;5012019;28;20041;-83
2022/08/21 06:22:58;;;;;;;2.45;2.25;;;;;;;20.76;86.04;99472.50;5012439;28;20045;-83
2022/08/21 06:25:24;;;;;;;3.80;2.10;;;;;;;20.72;85.77;99480.44;5013061;28;20458;-83
2022/08/21 06:27:50;;;;;;;2.78;2.20;;;;;;;20.72;85.50;99486.09;5020422;28;20038;-83
2022/08/21 06:30:16;;;;;;;2.88;2.08;;;;;;;20.62;85.15;99482.81;5031538;28;20099;-83
2022/08/21 06:32:42;;;;;;;2.25;1.90;;;;;;;20.60;85.47;99488.19;4982109;28;20065;-83
2022/08/21 06:35:08;;;;;;;2.15;1.90;;;;;;;20.66;86.36;99488.19;5027407;28;20079;-83
2022/08/21 06:37:34;;;;;;;2.13;1.85;;;;;;;20.74;85.57;99486.34;4986428;28;20047;-84
2022/08/21 06:39:59;;;;;;;2.20;1.80;;;;;;;20.68;85.14;99485.59;4979909;28;20550;-83
2022/08/21 06:42:27;;;;;;;1.85;1.70;;;;;;;20.69;85.48;99481.50;5023977;28;20095;-83
2022/08/21 06:44:52;;;;;;;2.05;1.77;;;;;;;20.69;86.27;99476.63;5015806;28;20499;-83
2022/08/21 06:47:17;;;;;;;2.13;1.83;;;;;;;20.75;85.46;99494.28;5013402;28;20034;-83
2022/08/21 06:49:43;;;;;;;2.22;1.90;;;;;;;20.69;85.80;99487.13;5013426;28;20500;-83
2022/08/21 06:52:12;;;;;;;2.22;1.85;;;;;;;20.74;87.19;99489.94;5014273;28;20379;-83
2022/08/21 06:54:39;;;;;;;1.73;1.60;;;;;;;20.73;86.26;99488.41;5011411;28;20037;-83
2022/08/21 06:57:05;;;;;;;2.10;1.90;;;;;;;20.65;86.63;99486.66;5012021;28;20096;-83
2022/08/21 06:59:31;;;;;;;2.67;1.80;;;;;;;20.62;88.05;99488.47;5009852;28;20054;-83
2022/08/21 07:02:00;;;;;;;1.98;1.70;;;;;;;20.46;87.89;99487.22;4992573;28;20140;-83
2022/08/21 07:04:26;;;;;;;3.30;1.80;;;;;;;20.43;88.47;99488.25;5024671;28;20042;-81
2022/08/21 07:06:52;;;;;;;2.55;1.80;;;;;;;20.32;88.85;99488.31;5009782;28;20415;-83
2022/08/21 07:09:17;;;;;;;3.80;1.95;;;;;;;20.31;90.09;99498.03;4984181;28;20656;-82
2022/08/21 07:11:45;;;;;;;3.08;1.70;;;;;;;20.21;89.63;99488.31;5016843;28;20037;-80
2022/08/21 07:14:10;;;;;;;1.83;1.63;;;;;;;20.16;90.37;99491.91;5026514;28;20049;-81
2022/08/21 07:16:36;;;;;;;2.20;1.85;;;;;;;20.22;90.92;99487.03;5011993;28;20061;-81
2022/08/21 07:19:02;;;;;;;2.45;2.00;;;;;;;20.29;90.43;99499.84;5021184;28;20042;-81
2022/08/21 07:21:27;;;;;;;2.05;1.60;;;;;;;20.27;90.45;99491.88;5014423;28;20049;-81
2022/08/21 07:23:53;;;;;;;2.92;1.90;;;;;;;20.28;89.31;99484.97;5025102;28;20111;-81
2022/08/21 07:26:21;;;;;;;2.05;1.80;;;;;;;20.24;90.68;99480.88;5015381;28;20100;-81
2022/08/21 07:28:48;;;;;;;2.80;1.90;;;;;;;20.22;90.79;99478.56;5027945;28;20029;-82
2022/08/21 07:31:15;;;;;;;1.45;1.35;;;;;;;20.26;90.09;99490.34;5026872;28;20590;-81
2022/08/21 07:33:41;;;;;;;2.08;1.63;;;;;;;20.35;90.06;99484.47;5027812;28;20337;-81
2022/08/21 07:36:07;;;;;;;1.85;1.45;;;;;;;20.41;89.54;99473.94;5008480;28;20042;-82
2022/08/21 07:38:34;;;;;;;2.83;1.80;;;;;;;20.55;89.74;99476.94;5010267;28;20120;-81
2022/08/21 07:41:01;;;;;;;2.00;1.50;;;;;;;20.64;89.20;99473.84;5011811;28;20119;-81
2022/08/21 07:43:27;;;;;;;1.98;1.60;;;;;;;20.63;88.69;99467.44;5011980;28;20056;-81
2022/08/21 07:45:54;;;;;;;1.77;1.50;;;;;;;20.67;88.92;99472.78;4980743;28;20049;-81
2022/08/21 07:48:20;;;;;;;2.17;1.60;;;;;;;20.69;88.81;99475.88;4996718;28;20068;-80
2022/08/21 07:50:46;;;;;;;2.67;1.60;;;;;;;20.71;88.66;99473.28;5031285;28;20029;-80
2022/08/21 07:53:12;;;;;;;2.08;1.63;;;;;;;20.80;88.29;99464.53;5030725;28;20578;-80
2022/08/21 07:55:37;;;;;;;1.83;1.33;;;;;;;20.91;88.49;99465.22;5030159;28;20418;-81
2022/08/21 07:58:04;;;;;;;1.52;1.30;;;;;;;21.06;87.28;99464.88;5011115;28;20041;-80
2022/08/21 08:00:30;;;;;;;2.10;1.33;;;;;;;21.09;87.29;99463.06;5031038;28;20072;-81
2022/08/21 08:02:56;;;;;;;2.00;1.40;;;;;;;21.27;87.15;99466.03;5014640;28;20046;-80
2022/08/21 08:05:28;;;;;;;1.67;1.48;;;;;;;21.37;84.65;99475.72;5024164;28;20056;-79
2022/08/21 08:07:54;;;;;;;1.88;1.20;;;;;;;21.24;85.17;99469.91;5031709;28;20041;-80
2022/08/21 08:10:21;;;;;;;2.00;1.60;;;;;;;21.22;85.85;99471.72;5012775;28;20034;-87
2022/08/21 08:12:47;;;;;;;2.88;1.45;;;;;;;21.22;86.06;99464.03;5029838;28;20087;-81
2022/08/21 08:15:16;;;;;;;2.35;1.60;;;;;;;21.23;85.74;99465.53;5030515;28;20038;-81
2022/08/21 08:17:42;;;;;;;3.20;1.50;;;;;;;21.21;86.03;99464.53;5013521;28;20049;-81
2022/08/21 08:20:10;;;;;;;2.10;1.60;;;;;;;21.34;85.91;99468.31;5030743;28;20041;-80
2022/08/21 08:22:39;;;;;;;1.67;1.55;;;;;;;21.27;84.52;99463.19;5012450;28;20068;-80
2022/08/21 08:25:07;;;;;;;2.45;1.40;;;;;;;21.28;85.01;99467.56;5011295;28;20076;-80
2022/08/21 08:27:32;;;;;;;1.90;1.50;;;;;;;21.42;84.83;99467.72;5029209;28;20064;-81
2022/08/21 08:29:58;;;;;;;1.50;1.40;;;;;;;21.54;84.15;99457.88;5024324;28;20458;-79
2022/08/21 08:32:24;;;;;;;1.40;1.30;;;;;;;21.62;83.23;99465.25;4997080;28;20502;-81
2022/08/21 08:34:51;;;;;;;1.70;1.50;;;;;;;21.74;82.51;99458.19;5030448;28;20390;-80
2022/08/21 08:37:18;;;;;;;2.53;1.70;;;;;;;21.80;82.63;99458.88;5027430;28;20115;-81
2022/08/21 08:39:44;;;;;;;1.50;1.40;;;;;;;21.88;82.44;99459.06;5029939;28;20049;-81
2022/08/21 08:42:15;;;;;;;2.20;1.75;;;;;;;21.92;82.44;99461.66;5031164;28;20116;-81
2022/08/21 08:44:42;;;;;;;1.85;1.65;;;;;;;22.04;82.38;99446.13;5012147;28;20077;-80
2022/08/21 08:47:10;;;;;;;1.90;1.63;;;;;;;22.21;81.82;99458.75;5012007;28;20045;-80
2022/08/21 08:50:04;;;;;;;1.48;1.38;;;;;;;22.08;80.69;99447.31;4998411;28;20044;-81
2022/08/21 08:52:33;;;;;;;4.63;1.70;;;;;;;22.04;81.70;99452.50;5029421;28;20052;-82
2022/08/21 08:55:05;;;;;;;2.65;1.70;;;;;;;22.12;81.53;99455.53;5011087;28;20112;-80
2022/08/21 08:57:31;;;;;;;2.53;1.67;;;;;;;22.12;81.69;99444.22;5033069;28;20053;-81
2022/08/21 09:00:00;;;;;;;1.92;1.45;;;;;;;22.16;81.07;99462.38;5001512;28;20540;-82
2022/08/21 09:02:27;;;;;;;1.48;1.38;;;;;;;22.04;80.16;99455.34;5023772;28;20041;-80
2022/08/21 09:04:53;;;;;;;1.80;1.48;;;;;;;21.97;81.47;99461.56;5049417;28;20061;-78
2022/08/21 09:07:38;;;;;;;1.95;1.50;;;;;;;22.00;80.96;99449.22;5032683;28;20071;-80
2022/08/21 09:10:20;;;;;;;2.28;1.60;;;;;;;22.00;80.31;99459.78;5030286;28;20407;-80
2022/08/21 09:12:50;;;;;;;2.75;1.70;;;;;;;21.95;80.16;99458.53;5011825;28;20136;-80
2022/08/21 09:15:26;;;;;;;1.98;1.77;;;;;;;22.03;81.13;99459.47;5029419;28;20124;-80
2022/08/21 09:17:58;;;;;;;2.90;1.85;;;;;;;22.27;79.50;99461.50;5011993;28;20057;-80
2022/08/21 09:20:28;;;;;;;3.90;1.70;;;;;;;22.47;79.49;99457.41;5030237;28;20046;-82
2022/08/21 09:23:12;;;;;;;1.95;1.70;;;;;;;22.57;78.90;99459.31;5029956;28;20073;-82
2022/08/21 09:26:01;;;;;;;3.67;1.80;;;;;;;22.63;77.94;99445.13;5004941;28;20419;-82
2022/08/21 09:28:26;;;;;;;3.03;1.63;;;;;;;22.53;78.50;99455.25;5030840;28;20045;-83
2022/08/21 09:30:55;;;;;;;2.35;1.50;;;;;;;22.54;77.84;99445.50;5034109;28;20042;-81
2022/08/21 09:33:24;;;;;;;1.80;1.70;;;;;;;22.51;78.55;99446.56;4998899;28;20498;-83
2022/08/21 09:35:54;;;;;;;2.75;2.00;;;;;;;22.63;78.03;99450.78;5030321;28;20045;-83
2022/08/21 09:38:32;;;;;;;1.92;1.73;;;;;;;22.59;78.39;99448.25;4997118;28;20088;-82
2022/08/21 09:41:01;;;;;;;2.30;1.80;;;;;;;22.57;77.99;99444.41;5009753;28;20119;-84
2022/08/21 09:43:27;;;;;;;2.05;1.70;;;;;;;22.65;78.82;99425.56;5010258;28;20049;-83
2022/08/21 09:46:21;;;;;;;2.20;1.90;;;;;;;22.99;76.21;99437.97;4991037;28;20038;-83
2022/08/21 09:48:49;;;;;;;2.92;2.20;;;;;;;23.32;74.29;99444.38;5024676;28;20533;-82
2022/08/21 09:51:26;;;;;;;2.40;1.85;;;;;;;23.58;74.70;99439.59;5010358;28;20033;-83
2022/08/21 09:53:55;;;;;;;1.83;1.73;;;;;;;23.91;73.94;99429.72;5009654;28;20069;-83
2022/08/21 09:59:19;;;;;;;1.88;1.70;;;;;;;24.37;72.39;99425.47;5029116;28;20052;-83
2022/08/21 10:01:48;;;;;;;1.70;1.60;;;;;;;24.24;69.74;99430.41;5019620;28;20136;-83
2022/08/21 10:04:15;;;;;;;3.78;2.25;;;;;;;24.06;70.57;99424.25;5025622;28;20406;-83
2022/08/21 10:06:40;;;;;;;2.70;2.05;;;;;;;23.76;71.06;99435.16;5012321;28;20037;-83
2022/08/21 10:09:09;;;;;;;2.92;1.80;;;;;;;23.49;72.78;99430.75;5011720;28;20412;-82
2022/08/21 10:11:35;;;;;;;2.92;2.03;;;;;;;23.36;73.27;99430.69;5012775;28;20087;-83
2022/08/21 10:14:10;;;;;;;2.22;1.98;;;;;;;23.12;74.71;99438.00;5011139;28;20546;-83
2022/08/21 10:17:01;;;;;;;2.40;2.05;;;;;;;23.12;74.30;99440.06;5030776;28;20121;-83
2022/08/21 10:20:01;;;;;;;2.20;2.00;;;;;;;23.23;73.90;99445.56;5014011;28;20068;-84
2022/08/21 10:22:47;;;;;;;2.97;2.20;;;;;;;23.30;73.64;99447.75;5014122;28;20045;-83
2022/08/21 10:25:31;;;;;;;2.55;2.20;;;;;;;23.28;73.84;99438.28;4981619;28;20125;-83
2022/08/21 10:28:25;;;;;;;2.40;2.10;;;;;;;23.24;73.73;99441.44;4963565;28;20136;-83
2022/08/21 12:22:14;;;;;;;2.67;2.00;;;;;;;23.52;71.88;99392.88;5005892;28;20034;-81
2022/08/21 12:24:48;;;;;;;5.35;1.95;;;;;;;23.51;71.74;99405.50;5000224;28;20056;-81
2022/08/21 12:27:19;;;;;;;3.47;2.10;;;;;;;23.41;71.80;99402.31;4992626;28;20050;-83
2022/08/21 12:29:48;;;;;;;2.03;1.80;;;;;;;23.42;72.09;99398.16;4997930;28;20041;-83
2022/08/21 12:32:13;;;;;;;2.20;2.00;;;;;;;23.45;72.12;99399.19;4997822;28;20058;-83
2022/08/21 12:34:44;;;;;;;2.20;2.00;;;;;;;23.23;73.39;99384.06;4996258;28;20421;-83
2022/08/21 12:37:39;;;;;;;2.83;1.90;;;;;;;23.21;72.85;99400.06;4975675;28;20042;-82
2022/08/21 12:40:18;;;;;;;2.75;1.77;;;;;;;23.17;72.32;99389.03;4993274;28;20034;-82
2022/08/21 12:42:49;;;;;;;1.75;1.50;;;;;;;23.30;72.79;99396.03;4991799;28;20034;-83
2022/08/21 12:45:46;;;;;;;1.50;1.40;;;;;;;23.28;72.26;99381.69;4975336;28;20057;-84
2022/08/21 12:48:33;;;;;;;1.77;1.60;;;;;;;23.13;72.58;99393.53;4988581;28;20058;-83
2022/08/21 12:51:10;;;;;;;1.40;1.30;;;;;;;23.07;72.83;99381.50;4993592;28;20053;-83
2022/08/21 12:53:44;;;;;;;1.30;1.20;;;;;;;22.95;73.34;99368.84;4974995;28;20034;-83
2022/08/21 12:56:12;;;;;;;1.33;1.15;;;;;;;23.09;72.91;99365.53;4992326;28;20519;-82
2022/08/21 12:58:44;;;;;;;1.20;1.10;;;;;;;23.19;72.66;99361.00;4991917;28;20050;-83
2022/08/21 13:01:21;;;;;;;1.60;1.35;;;;;;;23.48;73.67;99362.06;4991968;28;20446;-82
2022/08/21 13:03:46;;;;;;;1.67;1.30;;;;;;;23.53;72.58;99352.72;4974249;28;20527;-82
2022/08/21 13:06:16;;;;;;;1.73;1.05;;;;;;;23.66;71.11;99361.19;4991452;28;20038;-82
2022/08/21 13:08:43;;;;;;;1.67;1.10;;;;;;;23.62;71.17;99337.34;4974190;28;20400;-83
2022/08/21 13:11:10;;;;;;;1.65;1.00;;;;;;;23.65;71.28;99356.09;4987483;28;20043;-83
2022/08/21 13:13:36;;;;;;;1.10;1.00;;;;;;;23.69;71.86;99359.34;4970347;28;20045;-82
2022/08/21 13:16:06;;;;;;;1.27;1.02;;;;;;;23.38;73.36;99352.41;4971557;28;20427;-81
2022/08/21 13:18:34;;;;;;;1.40;1.30;;;;;;;23.24;74.07;99360.13;4972580;28;20096;-83
2022/08/21 13:21:11;;;;;;;1.88;1.08;;;;;;;23.04;75.63;99360.75;4975193;28;20189;-82
2022/08/21 13:23:37;;;;;;;1.20;1.10;;;;;;;22.77;76.35;99361.94;4965630;28;20137;-83
2022/08/21 13:26:15;;;;;;;1.23;1.13;;;;;;;22.50;77.92;99365.91;4999630;28;20181;-82
2022/08/21 13:28:41;;;;;;;1.35;1.25;;;;;;;22.63;77.96;99374.47;5003978;28;20068;-83
2022/08/21 13:31:09;;;;;;;1.30;1.05;;;;;;;22.60;77.36;99375.53;5001770;28;20446;-83
2022/08/21 13:33:37;;;;;;;1.45;1.10;;;;;;;22.56;77.87;99361.72;4974781;28;20034;-83
2022/08/21 13:36:11;;;;;;;1.75;1.20;;;;;;;22.63;77.36;99375.22;4999478;28;20077;-83
2022/08/21 13:38:38;;;;;;;1.52;0.90;;;;;;;22.72;77.30;99371.28;4970713;28;20042;-82
2022/08/21 13:41:20;;;;;;;1.58;1.40;;;;;;;22.78;77.12;99369.13;4971541;28;20047;-84
2022/08/21 13:43:55;;;;;;;1.05;0.90;;;;;;;22.89;76.74;99374.59;4979435;28;20038;-83
2022/08/21 13:46:22;;;;;;;0.90;0.90;;;;;;;22.89;75.99;99368.94;4980889;28;20053;-83
2022/08/21 13:48:49;;;;;;;1.92;1.33;;;;;;;22.92;76.24;99362.22;4987750;28;20038;-81
2022/08/21 13:51:16;;;;;;;1.15;1.05;;;;;;;22.91;76.15;99366.34;5004580;28;20038;-83
2022/08/21 13:53:44;;;;;;;1.20;0.90;;;;;;;22.95;75.65;99355.47;4973402;28;20534;-82
2022/08/21 13:56:22;;;;;;;2.40;0.98;;;;;;;23.03;75.58;99370.53;4997668;28;20491;-82
2022/08/21 13:58:47;;;;;;;1.10;1.00;;;;;;;22.99;75.02;99372.13;4993792;28;20752;-83
2022/08/21 14:01:34;;;;;;;1.05;1.00;;;;;;;22.95;75.86;99361.13;4991215;28;20054;-83
2022/08/21 14:04:07;;;;;;;0.90;0.90;;;;;;;23.00;75.47;99368.78;4974696;28;20483;-82
2022/08/21 14:06:36;;;;;;;2.60;0.85;;;;;;;22.97;74.91;99360.63;4998808;28;20042;-83
2022/08/21 14:09:09;;;;;;;1.92;0.95;;;;;;;22.95;74.99;99358.31;4995711;28;20547;-82
2022/08/21 14:11:34;;;;;;;;;;;;;;;22.90;75.83;99364.81;4972047;28;20054;-83
2022/08/21 14:14:11;;;;;;;1.10;0.98;;;;;;;22.88;76.85;99339.16;4990580;28;19913;-83
2022/08/21 14:16:56;;;;;;;1.30;1.20;;;;;;;23.02;75.69;99360.50;4997651;28;20125;-83
2022/08/21 14:19:37;;;;;;;1.95;0.98;;;;;;;23.00;76.17;99357.47;4997119;28;20039;-81
2022/08/21 14:22:32;;;;;;;1.10;1.00;;;;;;;22.96;76.71;99351.34;5010635;28;20110;-81
2022/08/21 14:25:06;;;;;;;2.28;1.20;;;;;;;22.78;77.30;99344.44;4994999;28;20042;-82
2022/08/21 14:27:33;;;;;;;1.10;1.00;;;;;;;22.71;77.58;99347.13;5009253;28;20050;-82
2022/08/21 14:30:17;;;;;;;1.63;1.10;;;;;;;22.64;78.26;99350.56;5001009;28;20129;-84
2022/08/21 14:32:43;;;;;;;2.45;0.90;;;;;;;22.61;78.87;99348.78;5006518;28;20046;-83
2022/08/21 14:35:09;;;;;;;1.15;1.00;;;;;;;22.64;78.48;99342.84;4992407;28;20462;-78
2022/08/21 14:37:45;;;;;;;3.60;1.10;;;;;;;22.66;78.20;99347.94;5017433;28;20073;-78
2022/08/21 14:40:12;;;;;;;1.77;1.10;;;;;;;22.78;78.08;99349.31;4995088;28;20057;-77
2022/08/21 14:42:38;;;;;;;3.22;1.10;;;;;;;22.93;77.67;99360.16;5012051;28;20050;-79
2022/08/21 14:45:30;;;;;;;0.95;0.85;;;;;;;23.10;76.34;99352.91;4978773;28;20057;-80
2022/08/21 14:47:57;;;;;;;1.65;0.98;;;;;;;23.12;74.24;99364.47;4976705;28;20451;-77
2022/08/21 14:50:23;;;;;;;1.15;0.80;;;;;;;23.01;73.10;99356.16;5011447;28;20058;-78
2022/08/21 14:52:49;;;;;;;1.25;0.80;;;;;;;22.89;73.71;99366.09;5002447;28;20080;-77
2022/08/21 14:55:16;;;;;;;2.55;0.95;;;;;;;22.60;74.79;99361.41;5012683;28;20050;-77
2022/08/21 14:57:46;;;;;;;1.25;1.10;;;;;;;22.57;75.66;99368.09;4977279;28;20046;-77
2022/08/21 15:00:13;;;;;;;1.40;1.08;;;;;;;22.46;74.65;99366.22;4993396;28;20675;-78
2022/08/21 15:02:39;;;;;;;2.33;0.82;;;;;;;22.35;75.13;99365.59;5009613;28;20133;-78
2022/08/21 15:05:05;;;;;;;0.95;0.90;;;;;;;22.28;75.30;99367.00;4976813;28;20046;-77
2022/08/21 15:07:31;;;;;;;1.23;1.00;;;;;;;22.22;76.58;99352.16;5012424;28;20042;-78
2022/08/21 15:09:56;;;;;;;1.75;0.90;;;;;;;22.39;75.76;99363.25;4990213;28;20053;-76
2022/08/21 15:12:23;;;;;;;1.23;1.10;;;;;;;22.42;75.43;99359.34;5009122;28;20137;-77
2022/08/21 15:14:48;;;;;;;1.10;0.82;;;;;;;22.46;76.02;99371.09;4993394;28;20044;-78
2022/08/21 15:17:14;;;;;;;1.13;1.00;;;;;;;22.43;75.90;99366.53;4995045;28;20038;-78
2022/08/21 15:19:39;;;;;;;1.88;1.30;;;;;;;22.27;76.30;99366.22;5011348;28;20148;-78
2022/08/21 15:22:08;;;;;;;1.40;1.30;;;;;;;22.33;76.71;99374.59;5010674;28;20061;-77
2022/08/21 15:24:34;;;;;;;2.50;1.10;;;;;;;22.29;76.75;99365.66;5013124;28;20046;-77
2022/08/21 15:27:01;;;;;;;2.83;1.40;;;;;;;22.02;76.50;99370.41;5012135;28;20049;-76
2022/08/21 15:29:28;;;;;;;5.20;1.30;;;;;;;22.11;77.19;99374.91;4995043;28;20034;-78
2022/08/21 15:31:58;;;;;;;1.52;1.20;;;;;;;22.05;76.96;99366.50;5013153;28;20034;-77
2022/08/21 15:34:26;;;;;;;2.42;1.50;;;;;;;22.06;76.40;99381.38;5003612;28;20679;-76
2022/08/21 15:36:52;;;;;;;1.80;1.40;;;;;;;21.99;76.48;99379.94;5001976;28;20038;-79
2022/08/21 15:39:18;;;;;;;1.73;1.50;;;;;;;21.80;77.01;99379.06;4994745;28;20127;-78
2022/08/21 15:41:44;;;;;;;2.08;1.70;;;;;;;21.63;78.08;99386.97;5011664;28;20042;-77
2022/08/21 15:44:11;;;;;;;1.88;1.60;;;;;;;21.53;78.42;99366.03;5025297;28;20037;-87
2022/08/21 15:46:37;;;;;;;2.70;1.60;;;;;;;21.50;79.06;99372.75;5034142;28;20499;-90
2022/08/21 15:49:02;;;;;;;2.70;1.48;;;;;;;21.41;79.06;99368.22;5003163;28;20125;-88
2022/08/21 15:51:28;;;;;;;1.67;1.50;;;;;;;21.44;79.06;99361.50;5015401;28;20125;-88
2022/08/21 15:53:55;;;;;;;1.50;1.40;;;;;;;21.55;78.49;99369.09;5019636;28;20084;-88
2022/08/21 15:56:24;;;;;;;2.25;1.40;;;;;;;21.51;78.13;99377.09;5022308;28;20050;-88
2022/08/21 15:58:50;;;;;;;3.05;1.55;;;;;;;21.48;77.69;99358.38;5022871;28;20041;-88
2022/08/21 16:01:16;;;;;;;1.98;1.73;;;;;;;21.55;77.39;99366.28;5003889;28;21511;-89
2022/08/21 16:03:43;;;;;;;2.10;1.50;;;;;;;21.52;77.55;99376.56;5008942;28;20064;-90
2022/08/21 16:06:09;;;;;;;2.30;1.50;;;;;;;21.49;77.45;99362.75;5017700;28;20406;-88
2022/08/21 16:08:35;;;;;;;1.52;1.42;;;;;;;21.45;78.66;99367.91;5020598;28;20025;-88
2022/08/21 16:11:01;;;;;;;3.88;1.60;;;;;;;21.47;78.49;99368.16;5018660;28;20112;-87
2022/08/21 16:13:29;;;;;;;3.03;1.50;;;;;;;21.46;78.30;99367.41;5014592;28;20870;-88
2022/08/21 16:15:55;;;;;;;2.22;1.60;;;;;;;21.35;78.64;99362.59;5005003;28;20196;-86
2022/08/21 16:18:22;;;;;;;2.40;1.60;;;;;;;21.42;78.75;99368.97;5019217;28;20087;-88
2022/08/21 16:20:51;;;;;;;2.40;1.90;;;;;;;21.33;78.92;99376.50;5001845;28;20506;-89
2022/08/21 16:23:17;;;;;;;2.13;1.92;;;;;;;21.23;79.38;99372.47;5016042;28;20077;-88
2022/08/21 16:25:45;;;;;;;2.70;1.55;;;;;;;21.15;79.92;99365.88;5000648;28;20048;-88
2022/08/21 16:28:17;;;;;;;2.78;1.88;;;;;;;21.19;79.96;99366.34;5020750;28;20033;-87
2022/08/21 16:30:44;;;;;;;2.65;1.77;;;;;;;21.22;79.74;99370.19;5009666;28;20034;-88
2022/08/21 16:33:24;;;;;;;2.42;1.50;;;;;;;21.10;79.70;99372.31;5005653;28;20104;-87
2022/08/21 16:35:50;;;;;;;1.85;1.67;;;;;;;21.05;79.60;99366.72;4999477;28;20052;-87
2022/08/21 16:38:16;;;;;;;2.85;1.80;;;;;;;21.04;80.10;99365.94;5016111;28;20050;-87
2022/08/21 16:40:42;;;;;;;2.17;1.58;;;;;;;20.99;80.33;99375.19;5013572;28;20070;-86
2022/08/21 16:43:08;;;;;;;2.72;2.00;;;;;;;20.97;80.90;99365.75;5014471;28;20052;-90
2022/08/21 16:45:33;;;;;;;2.17;1.50;;;;;;;20.97;80.67;99380.63;5017693;28;20038;-88
2022/08/21 16:47:59;;;;;;;3.10;2.13;;;;;;;20.96;80.88;99376.25;5009032;28;20601;-87
2022/08/21 16:50:25;;;;;;;3.08;1.98;;;;;;;20.91;81.30;99368.59;5016704;28;20495;-87
2022/08/21 16:52:51;;;;;;;2.80;2.00;;;;;;;20.98;80.98;99368.06;5014281;28;20056;-87
2022/08/21 16:55:17;;;;;;;3.45;1.90;;;;;;;20.91;81.30;99385.50;5014802;28;20045;-88
2022/08/21 16:57:42;;;;;;;2.70;2.17;;;;;;;20.87;81.14;99385.03;5019089;28;20451;-86
2022/08/21 17:00:12;;;;;;;2.80;2.20;;;;;;;20.83;81.61;99376.88;5019538;28;20428;-87